createdAt,value
2023-01-01T00:00:22.899Z,100796.50
2023-01-01T00:02:50.933Z,100813.63
2023-01-01T00:05:18.929Z,100812.81
2023-01-01T00:07:46.698Z,100798.25
2023-01-01T00:10:29.665Z,100802.81
2023-01-01T00:12:59.638Z,100821.50
2023-01-01T00:15:28.472Z,100805.13
2023-01-01T00:17:56.680Z,100828.28
2023-01-01T00:20:27.630Z,100827.47
2023-01-01T00:22:59.476Z,100826.88
2023-01-01T00:25:27.293Z,100823.38
2023-01-01T00:27:55.813Z,100849.56
2023-01-01T00:30:25.718Z,100823.38
2023-01-01T00:32:54.601Z,100806.16
2023-01-01T00:35:23.919Z,100823.84
2023-01-01T00:37:51.723Z,100821.63
2023-01-01T00:40:19.759Z,100840.16
2023-01-01T00:42:47.556Z,100828.19
2023-01-01T00:45:21.021Z,100825.97
2023-01-01T00:47:51.610Z,100827.03
2023-01-01T00:50:19.940Z,100825.41
2023-01-01T00:52:49.281Z,100817.53
2023-01-01T00:55:17.428Z,100808.63
2023-01-01T00:57:45.315Z,100824.81
2023-01-01T01:00:15.239Z,100826.22
2023-01-01T01:02:43.237Z,100828.19
2023-01-01T01:05:12.776Z,100835.81
2023-01-01T01:07:40.941Z,100838.66
2023-01-01T01:10:12.191Z,100825.97
2023-01-01T01:12:40.269Z,100810.84
2023-01-01T01:15:09.072Z,100837.34
2023-01-01T01:17:37.078Z,100837.94
2023-01-01T01:20:06.275Z,100833.69
2023-01-01T01:22:35.792Z,100843.34
2023-01-01T01:25:03.829Z,100846.31
2023-01-01T01:27:32.025Z,100837.97
2023-01-01T01:29:59.845Z,100839.50
2023-01-01T01:32:27.678Z,100839.22
2023-01-01T01:34:55.504Z,100842.13
2023-01-01T01:37:23.280Z,100845.00
2023-01-01T01:39:54.114Z,100834.69
2023-01-01T01:42:22.598Z,100831.19
2023-01-01T01:44:59.803Z,100855.34
2023-01-01T01:47:32.142Z,100854.38
2023-01-01T01:50:04.899Z,100871.53
2023-01-01T01:52:35.227Z,100864.03
2023-01-01T01:55:06.486Z,100853.31
2023-01-01T01:57:35.006Z,100858.28
2023-01-01T02:00:10.654Z,100874.91
2023-01-01T02:02:43.719Z,100875.06
2023-01-01T02:05:12.118Z,100880.38
2023-01-01T02:07:40.794Z,100877.34
2023-01-01T02:10:10.647Z,100872.69
2023-01-01T02:12:38.533Z,100884.22
2023-01-01T02:15:08.154Z,100896.09
2023-01-01T02:17:42.269Z,100898.47
2023-01-01T02:20:26.679Z,100871.94
2023-01-01T02:23:16.983Z,100892.38
2023-01-01T02:26:00.888Z,100890.16
2023-01-01T02:28:45.342Z,100903.38
2023-01-01T02:31:21.284Z,100895.50
2023-01-01T02:33:54.442Z,100905.75
2023-01-01T02:36:24.139Z,100891.66
2023-01-01T02:38:56.163Z,100893.06
2023-01-01T02:41:34.928Z,100898.28
2023-01-01T02:46:33.756Z,100898.94
2023-01-01T02:49:09.593Z,100887.56
2023-01-01T02:51:46.044Z,100886.97
2023-01-01T02:54:25.148Z,100890.16
2023-01-01T02:57:00.180Z,100899.31
2023-01-01T02:59:52.732Z,100899.56
2023-01-01T03:02:27.349Z,100902.50
2023-01-01T03:05:07.346Z,100888.41
2023-01-01T03:07:45.576Z,100913.53
2023-01-01T03:10:17.873Z,100919.19
2023-01-01T03:12:55.928Z,100922.13
2023-01-01T03:15:32.414Z,100905.94
2023-01-01T03:18:04.410Z,100924.00
2023-01-01T03:20:37.234Z,100924.84
2023-01-01T03:23:08.972Z,100931.72
2023-01-01T03:25:41.649Z,100925.47
2023-01-01T03:28:14.042Z,100929.25
2023-01-01T03:30:46.647Z,100925.50
2023-01-01T03:33:19.249Z,100919.06
2023-01-01T03:35:51.560Z,100912.06
2023-01-01T03:38:23.572Z,100925.91
2023-01-01T03:40:55.651Z,100936.63
2023-01-01T03:43:31.793Z,100924.41
2023-01-01T03:46:03.246Z,100920.38
2023-01-01T03:48:55.753Z,100932.44
2023-01-01T03:51:31.123Z,100949.00
2023-01-01T03:54:03.285Z,100954.75
2023-01-01T03:56:39.035Z,100934.75
2023-01-01T03:59:14.089Z,100942.66
2023-01-01T04:01:47.922Z,100917.66
2023-01-01T04:04:17.509Z,100938.47
2023-01-01T04:06:45.704Z,100952.63
2023-01-01T04:09:18.941Z,100965.13
2023-01-01T04:12:05.067Z,100970.22
2023-01-01T04:14:36.791Z,100965.28
2023-01-01T04:17:07.535Z,100973.06
2023-01-01T04:19:35.391Z,100940.53
2023-01-01T04:22:04.034Z,100964.50
2023-01-01T04:24:31.830Z,100956.06
2023-01-01T04:26:59.757Z,100956.59
2023-01-01T04:29:27.501Z,100953.06
2023-01-01T04:31:55.405Z,100950.59
2023-01-01T04:34:24.552Z,100950.03
2023-01-01T04:36:53.072Z,100954.84
2023-01-01T04:39:20.800Z,100955.31
2023-01-01T04:41:48.626Z,100970.94
2023-01-01T04:44:16.433Z,100978.47
2023-01-01T04:46:44.205Z,100983.28
2023-01-01T04:49:11.932Z,100990.81
2023-01-01T04:51:41.256Z,100981.88
2023-01-01T04:54:09.354Z,100988.34
2023-01-01T04:56:37.124Z,100988.59
2023-01-01T04:59:04.941Z,100985.31
2023-01-01T05:01:32.842Z,100988.00
2023-01-01T05:04:01.714Z,100996.69
2023-01-01T05:06:30.147Z,100997.97
2023-01-01T05:08:59.597Z,101008.19
2023-01-01T05:11:29.395Z,101016.31
2023-01-01T05:13:59.146Z,101011.13
2023-01-01T05:16:29.706Z,101013.84
2023-01-01T05:18:58.101Z,100995.19
2023-01-01T05:21:27.660Z,101016.78
2023-01-01T05:23:56.746Z,101032.16
2023-01-01T05:26:28.945Z,101044.84
2023-01-01T05:28:57.992Z,101049.41
2023-01-01T05:31:27.908Z,101054.00
2023-01-01T05:36:27.350Z,101047.66
2023-01-01T05:38:55.786Z,101061.84
2023-01-01T05:41:24.391Z,101067.59
2023-01-01T05:43:54.309Z,101069.28
2023-01-01T05:46:24.298Z,101075.56
2023-01-01T05:48:53.864Z,101080.47
2023-01-01T05:51:23.849Z,101079.72
2023-01-01T05:53:52.131Z,101093.53
2023-01-01T05:56:20.063Z,101099.13
2023-01-01T05:58:48.435Z,101094.44
2023-01-01T06:01:20.028Z,101109.53
2023-01-01T06:03:49.038Z,101117.69
2023-01-01T06:06:18.729Z,101112.78
2023-01-01T06:08:50.932Z,101111.75
2023-01-01T06:11:18.882Z,101107.78
2023-01-01T06:13:46.838Z,101111.91
2023-01-01T06:16:15.794Z,101119.31
2023-01-01T06:18:45.292Z,101126.50
2023-01-01T06:21:15.409Z,101125.56
2023-01-01T06:23:43.828Z,101127.91
2023-01-01T06:26:13.552Z,101129.47
2023-01-01T06:28:41.950Z,101131.00
2023-01-01T06:31:12.308Z,101128.78
2023-01-01T06:33:41.015Z,101146.88
2023-01-01T06:36:12.216Z,101157.31
2023-01-01T06:38:42.369Z,101163.19
2023-01-01T06:41:13.560Z,101171.53
2023-01-01T06:43:41.959Z,101186.31
2023-01-01T06:46:17.245Z,101198.19
2023-01-01T06:48:45.775Z,101203.59
2023-01-01T06:51:17.730Z,101219.19
2023-01-01T06:53:45.744Z,101226.47
2023-01-01T06:56:13.976Z,101241.28
2023-01-01T06:58:42.469Z,101241.50
2023-01-01T07:01:13.923Z,101251.50
2023-01-01T07:03:42.988Z,101253.59
2023-01-01T07:06:11.839Z,101255.69
2023-01-01T07:08:40.990Z,101242.44
2023-01-01T07:11:08.790Z,101247.25
2023-01-01T07:13:36.646Z,101260.16
2023-01-01T07:16:12.168Z,101262.72
2023-01-01T07:18:41.038Z,101280.09
2023-01-01T07:21:29.311Z,101268.72
2023-01-01T07:23:59.814Z,101266.25
2023-01-01T07:26:29.700Z,101275.63
2023-01-01T07:29:04.600Z,101281.03
2023-01-01T07:31:35.084Z,101280.44
2023-01-01T07:34:02.992Z,101301.19
2023-01-01T07:36:30.822Z,101293.34
2023-01-01T07:39:00.090Z,101290.88
2023-01-01T07:41:27.907Z,101287.34
2023-01-01T07:43:55.741Z,101289.44
2023-01-01T07:46:23.648Z,101279.47
2023-01-01T07:48:51.463Z,101289.44
2023-01-01T07:51:19.222Z,101287.81
2023-01-01T07:53:47.213Z,101285.31
2023-01-01T07:56:16.345Z,101290.97
2023-01-01T07:58:44.126Z,101305.50
2023-01-01T08:01:13.029Z,101307.38
2023-01-01T08:03:40.920Z,101321.69
2023-01-01T08:06:13.425Z,101331.91
2023-01-01T08:08:41.579Z,101336.25
2023-01-01T08:11:09.732Z,101349.75
2023-01-01T08:13:38.864Z,101341.28
2023-01-01T08:16:07.180Z,101367.22
2023-01-01T08:18:35.169Z,101352.06
2023-01-01T08:21:03.727Z,101365.78
2023-01-01T08:23:31.679Z,101350.44
2023-01-01T08:26:01.260Z,101346.31
2023-01-01T08:28:29.829Z,101356.28
2023-01-01T08:30:59.426Z,101347.41
2023-01-01T08:33:27.401Z,101370.81
2023-01-01T08:35:55.245Z,101371.66
2023-01-01T08:38:23.330Z,101378.91
2023-01-01T08:40:51.213Z,101377.28
2023-01-01T08:43:19.277Z,101388.88
2023-01-01T08:45:47.281Z,101406.13
2023-01-01T08:48:16.447Z,101404.69
2023-01-01T08:50:44.240Z,101399.13
2023-01-01T08:53:12.029Z,101415.25
2023-01-01T08:55:39.827Z,101410.06
2023-01-01T08:58:08.513Z,101406.34
2023-01-01T09:00:36.737Z,101395.75
2023-01-01T09:03:04.854Z,101403.03
2023-01-01T09:05:34.144Z,101402.22
2023-01-01T09:08:01.931Z,101388.19
2023-01-01T09:10:29.765Z,101412.19
2023-01-01T09:12:57.712Z,101400.56
2023-01-01T09:15:25.571Z,101407.81
2023-01-01T09:17:53.385Z,101428.38
2023-01-01T09:20:21.271Z,101429.41
2023-01-01T09:22:50.433Z,101417.78
2023-01-01T09:25:18.523Z,101418.03
2023-01-01T09:27:46.385Z,101423.41
2023-01-01T09:30:15.498Z,101422.59
2023-01-01T09:32:43.349Z,101426.13
2023-01-01T09:35:11.125Z,101419.91
2023-01-01T09:37:39.124Z,101419.91
2023-01-01T09:40:10.045Z,101422.81
2023-01-01T09:42:44.695Z,101422.81
2023-01-01T09:45:24.266Z,101424.47
2023-01-01T09:47:56.379Z,101426.34
2023-01-01T09:50:28.918Z,101422.81
2023-01-01T09:52:58.038Z,101421.16
2023-01-01T09:55:30.516Z,101429.25
2023-01-01T09:57:58.933Z,101439.22
2023-01-01T10:00:30.029Z,101427.63
2023-01-01T10:03:14.224Z,101424.91
2023-01-01T10:05:53.810Z,101418.47
2023-01-01T10:08:44.600Z,101422.22
2023-01-01T10:11:21.663Z,101431.38
2023-01-01T10:13:50.725Z,101425.13
2023-01-01T10:16:28.836Z,101418.69
2023-01-01T10:18:59.649Z,101418.69
2023-01-01T10:21:31.663Z,101417.66
2023-01-01T10:24:03.427Z,101414.63
2023-01-01T10:26:35.873Z,101430.31
2023-01-01T10:29:14.256Z,101424.69
2023-01-01T10:31:46.508Z,101440.88
2023-01-01T10:34:17.511Z,101433.63
2023-01-01T10:36:45.663Z,101429.03
2023-01-01T10:39:17.052Z,101436.69
2023-01-01T10:41:47.248Z,101428.38
2023-01-01T10:44:17.818Z,101434.59
2023-01-01T10:46:49.800Z,101433.75
2023-01-01T10:49:17.684Z,101409.16
2023-01-01T10:51:48.026Z,101424.63
2023-01-01T10:54:33.655Z,101423.56
2023-01-01T10:57:15.129Z,101426.28
2023-01-01T10:59:49.794Z,101421.91
2023-01-01T11:02:22.890Z,101424.41
2023-01-01T11:04:52.298Z,101428.16
2023-01-01T11:07:29.995Z,101432.50
2023-01-01T11:10:04.119Z,101432.50
2023-01-01T11:15:38.647Z,101441.41
2023-01-01T11:18:08.425Z,101427.63
2023-01-01T11:20:36.253Z,101450.78
2023-01-01T11:23:20.922Z,101456.19
2023-01-01T11:26:07.953Z,101454.97
2023-01-01T11:28:37.636Z,101464.47
2023-01-01T11:31:15.246Z,101457.41
2023-01-01T11:33:49.050Z,101453.84
2023-01-01T11:36:23.506Z,101443.91
2023-01-01T11:39:04.246Z,101448.28
2023-01-01T11:41:42.460Z,101445.88
2023-01-01T11:44:14.206Z,101441.59
2023-01-01T11:46:42.135Z,101441.00
2023-01-01T11:49:15.401Z,101436.66
2023-01-01T11:51:43.259Z,101434.97
2023-01-01T11:54:22.544Z,101420.72
2023-01-01T11:56:53.455Z,101442.03
2023-01-01T11:59:27.476Z,101445.56
2023-01-01T12:01:58.214Z,101439.53
2023-01-01T12:04:31.847Z,101433.13
2023-01-01T12:07:05.817Z,101454.72
2023-01-01T12:09:42.037Z,101437.47
2023-01-01T12:12:17.745Z,101443.69
2023-01-01T12:14:54.233Z,101438.53
2023-01-01T12:17:26.210Z,101430.44
2023-01-01T12:20:00.375Z,101431.25
2023-01-01T12:22:29.017Z,101434.78
2023-01-01T12:24:58.282Z,101443.69
2023-01-01T12:28:01.909Z,101437.25
2023-01-01T12:30:38.232Z,101444.53
2023-01-01T12:33:19.136Z,101429.16
2023-01-01T12:36:04.746Z,101432.69
2023-01-01T12:39:05.488Z,101439.13
2023-01-01T12:41:40.796Z,101433.72
2023-01-01T12:44:17.985Z,101447.00
2023-01-01T12:46:51.918Z,101436.81
2023-01-01T12:49:37.317Z,101443.03
2023-01-01T12:52:16.212Z,101430.56
2023-01-01T12:55:16.473Z,101437.25
2023-01-01T12:57:50.317Z,101422.75
2023-01-01T13:00:21.428Z,101437.03
2023-01-01T13:02:54.038Z,101434.63
2023-01-01T13:05:25.343Z,101430.94
2023-01-01T13:07:59.040Z,101408.19
2023-01-01T13:10:31.067Z,101420.75
2023-01-01T13:12:58.947Z,101428.69
2023-01-01T13:15:45.272Z,101435.38
2023-01-01T13:18:30.284Z,101441.59
2023-01-01T13:21:06.538Z,101444.81
2023-01-01T13:23:54.540Z,101430.13
2023-01-01T13:26:42.061Z,101416.31
2023-01-01T13:29:35.815Z,101420.53
2023-01-01T13:32:09.240Z,101423.38
2023-01-01T13:35:03.091Z,101410.88
2023-01-01T13:37:45.031Z,101420.41
2023-01-01T13:40:34.942Z,101413.81
2023-01-01T13:43:07.934Z,101412.25
2023-01-01T13:49:03.728Z,101408.69
2023-01-01T13:55:11.366Z,101409.31
2023-01-01T13:58:24.225Z,101419.16
2023-01-01T14:01:26.423Z,101427.13
2023-01-01T14:03:56.913Z,101428.38
2023-01-01T14:06:30.512Z,101414.59
2023-01-01T14:09:08.397Z,101429.91
2023-01-01T14:11:36.358Z,101432.81
2023-01-01T14:14:04.186Z,101433.03
2023-01-01T14:16:32.038Z,101439.72
2023-01-01T14:19:04.122Z,101448.03
2023-01-01T14:21:35.078Z,101451.78
2023-01-01T14:24:06.344Z,101444.53
2023-01-01T14:26:38.367Z,101439.94
2023-01-01T14:29:08.856Z,101438.28
2023-01-01T14:31:41.312Z,101439.34
2023-01-01T14:34:17.386Z,101437.47
2023-01-01T14:36:55.815Z,101436.66
2023-01-01T14:39:29.934Z,101429.38
2023-01-01T14:42:01.859Z,101427.72
2023-01-01T14:44:35.905Z,101414.75
2023-01-01T14:47:05.165Z,101431.47
2023-01-01T14:49:36.165Z,101431.69
2023-01-01T14:52:08.339Z,101433.56
2023-01-01T14:54:39.574Z,101436.88
2023-01-01T14:57:12.487Z,101421.72
2023-01-01T14:59:48.214Z,101422.09
2023-01-01T15:02:18.606Z,101422.09
2023-01-01T15:04:46.507Z,101423.75
2023-01-01T15:07:21.950Z,101437.47
2023-01-01T15:09:51.722Z,101448.28
2023-01-01T15:12:20.369Z,101455.53
2023-01-01T15:14:50.023Z,101450.38
2023-01-01T15:17:19.451Z,101444.16
2023-01-01T15:19:49.040Z,101441.69
2023-01-01T15:22:26.117Z,101437.31
2023-01-01T15:24:55.800Z,101430.28
2023-01-01T15:27:26.958Z,101422.41
2023-01-01T15:29:56.999Z,101408.09
2023-01-01T15:32:27.842Z,101426.16
2023-01-01T15:34:57.009Z,101405.09
2023-01-01T15:37:31.124Z,101424.72
2023-01-01T15:40:02.101Z,101420.59
2023-01-01T15:42:34.517Z,101417.91
2023-01-01T15:45:23.447Z,101424.50
2023-01-01T15:47:52.619Z,101432.91
2023-01-01T15:50:23.895Z,101433.19
2023-01-01T15:52:56.096Z,101435.50
2023-01-01T15:55:28.283Z,101434.00
2023-01-01T15:57:56.980Z,101436.28
2023-01-01T16:00:27.107Z,101439.88
2023-01-01T16:02:59.360Z,101433.81
2023-01-01T16:05:28.594Z,101440.16
2023-01-01T16:08:01.451Z,101425.44
2023-01-01T16:10:32.007Z,101439.88
2023-01-01T16:13:00.167Z,101437.13
2023-01-01T16:15:28.345Z,101435.00
2023-01-01T16:17:56.515Z,101436.38
2023-01-01T16:20:25.371Z,101428.38
2023-01-01T16:22:53.269Z,101434.69
2023-01-01T16:25:22.739Z,101419.16
2023-01-01T16:27:51.888Z,101423.13
2023-01-01T16:30:19.626Z,101413.00
2023-01-01T16:32:49.136Z,101407.25
2023-01-01T16:35:17.376Z,101417.44
2023-01-01T16:37:45.540Z,101423.91
2023-01-01T16:40:13.807Z,101416.25
2023-01-01T16:42:41.553Z,101411.91
2023-01-01T16:45:18.024Z,101409.44
2023-01-01T16:47:45.896Z,101399.06
2023-01-01T16:50:13.916Z,101402.22
2023-01-01T16:52:44.884Z,101397.88
2023-01-01T16:55:13.325Z,101393.75
2023-01-01T16:57:41.147Z,101398.34
2023-01-01T17:00:11.898Z,101390.47
2023-01-01T17:02:39.893Z,101400.66
2023-01-01T17:05:08.391Z,101394.44
2023-01-01T17:07:36.219Z,101397.97
2023-01-01T17:10:04.472Z,101383.63
2023-01-01T17:12:32.653Z,101366.03
2023-01-01T17:15:01.442Z,101374.13
2023-01-01T17:17:30.709Z,101378.69
2023-01-01T17:19:58.516Z,101374.34
2023-01-01T17:22:30.647Z,101376.22
2023-01-01T17:25:01.870Z,101366.47
2023-01-01T17:27:29.650Z,101364.75
2023-01-01T17:29:57.418Z,101373.50
2023-01-01T17:32:25.183Z,101375.81
2023-01-01T17:34:54.339Z,101371.41
2023-01-01T17:37:22.159Z,101369.94
2023-01-01T17:39:49.925Z,101360.09
2023-01-01T17:42:17.744Z,101366.91
2023-01-01T17:44:45.523Z,101365.16
2023-01-01T17:47:13.673Z,101367.50
2023-01-01T17:49:43.842Z,101360.22
2023-01-01T17:52:13.027Z,101360.19
2023-01-01T17:54:40.877Z,101369.94
2023-01-01T17:57:08.721Z,101373.31
2023-01-01T17:59:36.589Z,101362.03
2023-01-01T18:02:05.931Z,101362.94
2023-01-01T18:04:34.028Z,101356.59
2023-01-01T18:07:06.005Z,101354.78
2023-01-01T18:09:38.077Z,101345.72
2023-01-01T18:12:07.149Z,101330.06
2023-01-01T18:14:34.949Z,101342.06
2023-01-01T18:17:03.895Z,101334.19
2023-01-01T18:19:32.471Z,101328.44
2023-01-01T18:22:00.274Z,101319.50
2023-01-01T18:24:28.184Z,101326.41
2023-01-01T18:26:57.352Z,101311.00
2023-01-01T18:29:25.479Z,101310.91
2023-01-01T18:31:53.255Z,101307.59
2023-01-01T18:34:21.073Z,101301.84
2023-01-01T18:36:48.963Z,101305.59
2023-01-01T18:39:21.632Z,101288.81
2023-01-01T18:42:21.907Z,101289.22
2023-01-01T18:44:49.874Z,101290.28
2023-01-01T18:47:19.580Z,101290.50
2023-01-01T18:49:51.880Z,101284.50
2023-01-01T18:52:23.959Z,101285.34
2023-01-01T18:55:03.280Z,101275.81
2023-01-01T18:57:32.700Z,101270.66
2023-01-01T19:00:01.109Z,101252.91
2023-01-01T19:02:36.108Z,101255.75
2023-01-01T19:05:24.489Z,101257.63
2023-01-01T19:07:57.261Z,101253.28
2023-01-01T19:10:25.958Z,101255.38
2023-01-01T19:12:56.306Z,101239.28
2023-01-01T19:15:24.416Z,101255.38
2023-01-01T19:17:54.686Z,101246.69
2023-01-01T19:20:24.654Z,101243.97
2023-01-01T19:22:52.430Z,101245.84
2023-01-01T19:25:35.429Z,101241.53
2023-01-01T19:28:26.951Z,101236.13
2023-01-01T19:30:54.761Z,101228.84
2023-01-01T19:33:22.561Z,101219.94
2023-01-01T19:35:50.412Z,101216.41
2023-01-01T19:38:18.173Z,101211.00
2023-01-01T19:40:45.931Z,101211.84
2023-01-01T19:43:15.154Z,101208.53
2023-01-01T19:45:43.060Z,101202.31
2023-01-01T19:48:10.837Z,101196.94
2023-01-01T19:50:38.667Z,101197.75
2023-01-01T19:53:06.669Z,101181.78
2023-01-01T19:55:34.691Z,101186.38
2023-01-01T19:58:02.536Z,101172.06
2023-01-01T20:00:31.805Z,101166.44
2023-01-01T20:03:25.890Z,101169.94
2023-01-01T20:05:47.416Z,101156.69
2023-01-01T20:08:15.377Z,101156.69
2023-01-01T20:10:43.176Z,101150.47
2023-01-01T20:13:11.000Z,101150.47
2023-01-01T20:15:46.372Z,101151.53
2023-01-01T20:18:14.647Z,101138.84
2023-01-01T20:21:02.745Z,101141.78
2023-01-01T20:23:30.607Z,101130.19
2023-01-01T20:25:58.697Z,101131.22
2023-01-01T20:28:44.227Z,101153.03
2023-01-01T20:31:13.471Z,101169.22
2023-01-01T20:33:41.287Z,101172.97
2023-01-01T20:36:34.941Z,101171.31
2023-01-01T20:39:02.793Z,101162.41
2023-01-01T20:41:30.597Z,101155.38
2023-01-01T20:44:01.462Z,101145.63
2023-01-01T20:46:31.221Z,101150.19
2023-01-01T20:48:59.754Z,101159.34
2023-01-01T20:51:28.408Z,101143.16
2023-01-01T20:53:56.194Z,101143.16
2023-01-01T20:56:24.057Z,101141.53
2023-01-01T20:58:56.110Z,101144.22
2023-01-01T21:01:27.410Z,101135.31
2023-01-01T21:03:56.645Z,101139.88
2023-01-01T21:06:24.993Z,101128.25
2023-01-01T21:08:52.914Z,101122.88
2023-01-01T21:11:20.929Z,101106.69
2023-01-01T21:13:49.157Z,101117.47
2023-01-01T21:16:19.070Z,101127.22
2023-01-01T21:18:47.853Z,101115.00
2023-01-01T21:21:21.700Z,101111.25
2023-01-01T21:23:50.636Z,101107.75
2023-01-01T21:26:22.494Z,101094.47
2023-01-01T21:28:50.263Z,101084.53
2023-01-01T21:31:18.304Z,101081.00
2023-01-01T21:33:47.256Z,101083.69
2023-01-01T21:36:19.725Z,101081.00
2023-01-01T21:38:48.892Z,101079.34
2023-01-01T21:41:20.407Z,101075.59
2023-01-01T21:43:50.271Z,101073.13
2023-01-01T21:46:32.085Z,101072.31
2023-01-01T21:49:02.822Z,101075.84
2023-01-01T21:51:37.014Z,101075.84
2023-01-01T21:54:18.930Z,101075.00
2023-01-01T21:56:53.613Z,101070.66
2023-01-01T21:59:34.682Z,101064.22
2023-01-01T22:02:31.749Z,101053.66
2023-01-01T22:05:02.001Z,101041.34
2023-01-01T22:10:26.473Z,101044.25
2023-01-01T22:12:58.547Z,101049.56
2023-01-01T22:15:33.921Z,101054.94
2023-01-01T22:18:19.063Z,101056.00
2023-01-01T22:20:47.782Z,101053.31
2023-01-01T22:23:25.472Z,101048.97
2023-01-01T22:25:53.689Z,101043.56
2023-01-01T22:28:24.459Z,101042.75
2023-01-01T22:30:56.385Z,101034.91
2023-01-01T22:33:29.029Z,101036.78
2023-01-01T22:35:58.094Z,101030.56
2023-01-01T22:38:33.288Z,101037.59
2023-01-01T22:41:01.274Z,101025.97
2023-01-01T22:43:33.705Z,101035.94
2023-01-01T22:46:11.710Z,101037.00
2023-01-01T22:48:40.135Z,101040.50
2023-01-01T22:51:12.769Z,101028.91
2023-01-01T22:53:41.945Z,101028.91
2023-01-01T22:56:09.704Z,101023.53
2023-01-01T22:58:37.465Z,101020.00
2023-01-01T23:01:05.329Z,101017.31
2023-01-01T23:03:33.297Z,101013.56
2023-01-01T23:06:02.315Z,101017.31
2023-01-01T23:08:30.685Z,101013.56
2023-01-01T23:11:02.574Z,101004.63
2023-01-01T23:13:47.902Z,101004.63
2023-01-01T23:16:15.738Z,100995.72
2023-01-01T23:18:43.603Z,100992.22
2023-01-01T23:21:14.951Z,100990.34
2023-01-01T23:23:44.402Z,100990.34
2023-01-01T23:26:13.941Z,100982.25
2023-01-01T23:28:41.855Z,100986.81
2023-01-01T23:31:12.075Z,100986.00
2023-01-01T23:33:40.717Z,100988.69
2023-01-01T23:36:10.486Z,100994.09
2023-01-01T23:38:39.871Z,100989.75
2023-01-01T23:41:07.668Z,100992.22
2023-01-01T23:43:43.029Z,100994.09
2023-01-01T23:46:12.319Z,100987.88
2023-01-01T23:48:40.565Z,100980.59
2023-01-01T23:51:08.704Z,100979.78
2023-01-01T23:53:36.730Z,100969.22
2023-01-01T23:56:04.573Z,100963.84
2023-01-01T23:58:32.535Z,100963.00
